EHGG/GRQ METAR and TAF weather

Enter ICAO airport designator
Station Type Date Time Source
EHGG METAR 2022/08/12 15:25 UTC NOAA

EHGG 121525Z AUTO 05011KT 010V080 9999 NCD 31/10 Q1018 NOSIG


Station Type Date Time Source
EHGG Decoded METAR 2022/08/12 15:25 UTC NOAA

Groningen Airport Eelde, Netherlands (EHGG) 53-08N 006-35E 4M
Aug 12, 2022 - 11:25 AM EDT / 2022.08.12 1525 UTC
Wind: from the NE (050 degrees) at 13 MPH (11 KT) (direction variable):0
Visibility: greater than 7 mile(s):0
Temperature: 87 F (31 C)
Dew Point: 50 F (10 C)
Relative Humidity: 27%
Pressure (altimeter): 30.06 in. Hg (1018 hPa)
ob: EHGG 121525Z AUTO 05011KT 010V080 9999 NCD 31/10 Q1018 NOSIG
cycle: 15

Station Type Date Time Source
EHGG TAF 2022/08/12 12:27 UTC NOAA

TAF COR EHGG 121102Z 1212/1318 08007KT CAVOK

Example: see airport list